Flight Track Log - Related Links

Times and Time Zones

All times are in EDT time to prevent confusion due to time zone crossing. See the AAL1292 flight status page for this flight to view local times or setup timezone preferences in your user account.

Time Position Orientation Groundspeed Altitude Reporting Facility
EDT Latitude Longitude Course Direction KTS MPH feet Rate Location/Type
Mon 03:53:01 PM 32.8833 -97.0333 180° South 141 162 1,600  Level Dallas / Fort Worth TRACON
Mon 03:53:37 PM 32.8500 -97.0333 180° South 190 219 2,500 2,176 Climbing Dallas / Fort Worth TRACON
Mon 03:54:32 PM 32.8000 -97.0000 151° Southeast 219 252 4,900 2,348 Climbing Dallas / Fort Worth TRACON
Mon 03:55:32 PM 32.7667 -96.9500 128° Southeast 251 289 7,000 2,400 Climbing Dallas / Fort Worth TRACON
Mon 03:56:32 PM 32.8000 -96.8667 65° Northeast 286 329 9,700 2,256 Climbing Dallas / Fort Worth TRACON
Mon 03:57:37 PM 32.8333 -96.7500 71° East 336 387 11,700 2,221 Climbing Dallas / Fort Worth TRACON
Mon 03:59:06 PM 32.8872 -96.5994 67° East 387 445 15,400 2,416 Climbing Fort Worth Center
Mon 04:00:06 PM 32.9197 -96.4903 70° East 382 440 17,700 2,400 Climbing Fort Worth Center
Mon 04:01:06 PM 32.9625 -96.3561 69° East 387 445 20,200 2,200 Climbing Fort Worth Center
Mon 04:02:06 PM 32.9844 -96.2394 77° East 387 445 22,100 2,000 Climbing Fort Worth Center
Mon 04:03:06 PM 33.0039 -96.0881 81° East 409 471 24,200 1,800 Climbing Fort Worth Center
Mon 04:04:06 PM 33.0214 -95.9642 80° East 420 483 25,700 1,550 Climbing Fort Worth Center
Mon 04:05:06 PM 33.0422 -95.8050 81° East 430 495 27,300 1,550 Climbing Fort Worth Center
Mon 04:06:06 PM 33.0594 -95.6758 81° East 435 501 28,800 1,550 Climbing Fort Worth Center
Mon 04:07:06 PM 33.0822 -95.5292 79° East 442 509 30,400 1,400 Climbing Fort Worth Center
Mon 04:08:06 PM 33.1239 -95.3844 71° East 442 509 31,600 1,350 Climbing Fort Worth Center
Mon 04:09:06 PM 33.1694 -95.2419 69° East 452 520 33,100 1,240 Climbing Fort Worth Center
Mon 04:10:07 PM 33.2089 -95.1069 71° East 446 513 34,100 950 Climbing Fort Worth Center
Mon 04:11:06 PM 33.2522 -94.9667 70° East 446 513 35,000 454 Climbing Fort Worth Center
Mon 04:12:06 PM 33.2911 -94.8289 71° East 446 513 35,000  Level Fort Worth Center
Mon 04:13:06 PM 33.3361 -94.6883 69° East 446 513 35,000  Level Fort Worth Center
Mon 04:14:06 PM 33.3769 -94.5503 70° East 441 507 35,000  Level Fort Worth Center
Mon 04:15:06 PM 33.4156 -94.4147 71° East 435 501 35,000  Level Fort Worth Center
Mon 04:16:06 PM 33.4558 -94.2764 71° East 435 501 35,000  Level Fort Worth Center
Mon 04:17:06 PM 33.4983 -94.1356 70° East 435 501 35,000  Level Fort Worth Center
Mon 04:18:06 PM 33.5489 -93.9964 66° East 435 501 35,000  Level Fort Worth Center
Mon 04:20:06 PM 33.6575 -93.7103 65° Northeast 440 506 35,000  Level Fort Worth Center
Mon 04:21:06 PM 33.7097 -93.5733 65° Northeast 445 512 35,000  Level Fort Worth Center
Mon 04:22:09 PM 33.7569 -93.4478 66° East 434 499 35,000  Level Memphis Center
Mon 04:23:09 PM 33.8100 -93.3147 64° Northeast 434 499 35,000  Level Memphis Center
Mon 04:24:09 PM 33.8614 -93.1789 65° Northeast 434 499 35,000  Level Memphis Center
Mon 04:25:09 PM 33.9100 -93.0478 66° East 434 499 35,000  Level Memphis Center
Mon 04:26:09 PM 33.9628 -92.9167 64° Northeast 434 499 35,000  Level Memphis Center
Mon 04:27:09 PM 34.0114 -92.7828 66° East 434 499 35,000  Level Memphis Center
Mon 04:28:09 PM 34.0642 -92.6414 66° East 434 499 35,000  Level Memphis Center
Mon 04:29:09 PM 34.1167 -92.5097 64° Northeast 434 499 35,000  Level Memphis Center
Mon 04:30:09 PM 34.1647 -92.3756 67° East 434 499 35,000  Level Memphis Center
Mon 04:31:09 PM 34.2150 -92.2436 65° Northeast 434 499 35,000  Level Memphis Center
Mon 04:32:09 PM 34.2628 -92.1114 66° East 434 499 35,000  Level Memphis Center
Mon 04:33:09 PM 34.3064 -91.9739 69° East 434 499 35,000  Level Memphis Center
Mon 04:34:09 PM 34.3558 -91.8414 66° East 434 499 35,000  Level Memphis Center
Mon 04:35:09 PM 34.4056 -91.7064 66° East 434 499 35,000  Level Memphis Center
Mon 04:36:09 PM 34.4528 -91.5736 67° East 434 499 35,000  Level Memphis Center
Mon 04:37:09 PM 34.5061 -91.4408 64° Northeast 434 499 35,000  Level Memphis Center
Mon 04:38:09 PM 34.5531 -91.3053 67° East 434 499 35,000  Level Memphis Center
Mon 04:39:09 PM 34.6000 -91.1669 68° East 434 499 35,000  Level Memphis Center
Mon 04:40:09 PM 34.6489 -91.0361 66° East 435 501 35,000  Level Memphis Center
Mon 04:41:09 PM 34.6953 -90.8978 68° East 436 502 35,000  Level Memphis Center
Mon 04:42:09 PM 34.7375 -90.7767 67° East 431 496 35,000  Level Memphis Center
Mon 04:43:09 PM 34.7881 -90.6403 66° East 436 502 35,000  Level Memphis Center
Mon 04:44:09 PM 34.8361 -90.5064 66° East 436 502 35,000  Level Memphis Center
Mon 04:45:09 PM 34.8842 -90.3697 67° East 436 502 35,000  Level Memphis Center
Mon 04:46:09 PM 34.9322 -90.2306 67° East 436 502 35,000  Level Memphis Center
Mon 04:47:09 PM 34.9861 -90.0808 66° East 436 502 35,000  Level Memphis Center
Mon 04:48:09 PM 35.0339 -89.9461 67° East 436 502 35,000  Level Memphis Center
Mon 04:49:09 PM 35.0792 -89.8039 69° East 443 510 35,000  Level Memphis Center
Mon 04:50:09 PM 35.1264 -89.6639 68° East 443 510 35,000  Level Memphis Center
Mon 04:51:09 PM 35.1694 -89.5264 69° East 438 504 35,000  Level Memphis Center
Mon 04:52:09 PM 35.2103 -89.4042 68° East 432 497 35,000 -50 Level Memphis Center
Mon 04:53:09 PM 35.2550 -89.2689 68° East 432 497 34,900 -800 Descending Memphis Center
Mon 04:54:09 PM 35.2994 -89.1308 68° East 432 497 33,400 -1,500 Descending Memphis Center
Mon 04:55:09 PM 35.3461 -88.9928 67° East 432 497 31,900 -1,500 Descending Memphis Center
Mon 04:56:09 PM 35.3883 -88.8569 69° East 432 497 30,400 -1,900 Descending Memphis Center
Mon 04:57:09 PM 35.4383 -88.7006 69° East 432 497 28,100 -2,150 Descending Memphis Center
Mon 04:58:09 PM 35.4864 -88.5569 68° East 437 503 26,100 -1,950 Descending Memphis Center
Mon 04:59:09 PM 35.5303 -88.4131 69° East 437 503 24,200 -1,850 Descending Memphis Center
Mon 05:00:09 PM 35.5739 -88.2767 69° East 437 503 22,400 -1,550 Descending Memphis Center
Mon 05:01:09 PM 35.6117 -88.1686 67° East 427 491 21,100 -1,250 Descending Memphis Center
Mon 05:02:09 PM 35.6589 -88.0167 69° East 402 463 19,900 -1,250 Descending Memphis Center
Mon 05:03:09 PM 35.6942 -87.9006 69° East 402 463 18,600 -1,450 Descending Memphis Center
Mon 05:04:09 PM 35.7353 -87.7714 69° East 394 453 17,000 -1,800 Descending Memphis Center
Mon 05:05:09 PM 35.7744 -87.6422 69° East 394 453 15,000 -2,000 Descending Memphis Center
Mon 05:06:09 PM 35.8133 -87.5206 68° East 387 445 13,000 -2,000 Descending Memphis Center
Mon 05:07:09 PM 35.8525 -87.4067 67° East 367 422 11,000 -1,500 Descending Memphis Center
Mon 05:08:09 PM 35.8914 -87.3003 66° East 343 395 10,000 -750 Descending Memphis Center
Mon 05:09:09 PM 35.9139 -87.1994 75° East 316 364 9,500 -750 Descending Memphis Center
Mon 05:10:09 PM 35.9383 -87.0908 74° East 298 343 8,500 -1,250 Descending Memphis Center
Mon 05:11:09 PM 35.9608 -87.0000 73° East 280 322 7,000 -1,850 Descending Memphis Center
Mon 05:12:09 PM 35.9817 -86.9172 73° East 268 308 4,800 -1,900 Descending Memphis Center
Mon 05:13:09 PM 36.0000 -86.8369 74° East 247 284 3,200 -1,600 Descending Memphis Center

Login

Don't have an account? Register now (free) for customized features, flight alerts, and more!